Terminal Aerodrome Forecast
Issued by NWS Mt. Holly, NJ

Home | Current Version | Previous Version | Text Only | Print | Product List | Glossary On
Versions: 1 2 3 4 5 6 7 8 9 10 11 12 13 14 15 16 17 18 19 20 21
000
FTUS41 KPHI 281001 AAB
TAFRDG
TAF AMD
KRDG 281001Z 2810/2906 VRB03KT 1/2SM FG VV002
     FM281200 VRB03KT 2SM BR SCT005
     FM281300 14004KT P6SM SCT050
     FM281600 15006KT P6SM BKN050
     FM282300 14006KT P6SM SCT020 BKN050
      TEMPO 2900/2902 BKN020 OVC050
     FM290200 13006KT 4SM -SHRA BR OVC010=

USA.gov is the U.S. government's official web portal to all federal, state and local government web resources and services.